Buoy 41602

sailwx.info

Track history (hours):
 
Tides and Currents Weather Stations Pressure Air Temp Water Temp Dewpoint Dewpoint Depression Visibility Wind Speed Wind Dir Waves Ship Positions

Drifting buoy 41602

Last reported at 2014-Aug-01 12:30 UTC. Time now 2014-Aug-01 15:59 UTC.
Position N 28°12' W 048°28'.

Water temperature -0.0 ° C

Date/timePositionNaut miles runAvg speedWind from/ knotsBaromVisibWave heightAir tempDewpointWater temp
2014-Aug-01 12:30N 28°12' W 048°28'0 0.4 -0.0
2014-Aug-01 12:00N 28°12' W 048°28'0 0.4 -0.0
2014-Aug-01 11:31N 28°12' W 048°28'0 0.4 -0.0
2014-Aug-01 11:01N 28°12' W 048°28'1 0.3 -0.0
2014-Aug-01 07:01N 28°12' W 048°27'1 0.4 -0.0
2014-Aug-01 05:01N 28°12' W 048°26'0 0.4 -0.0
2014-Aug-01 04:31N 28°12' W 048°26'2 0.3 -0.0
2014-Aug-01 00:01N 28°14' W 048°26'0 0.4 -0.0
2014-Jul-31 23:31N 28°14' W 048°26'1 0.4 -0.0
2014-Jul-31 21:01N 28°14' W 048°27'0 0.3 -0.0
2014-Jul-31 20:31N 28°15' W 048°27'0 0.2 -0.0
2014-Jul-31 20:01N 28°15' W 048°27'0 0.0 -0.0
2014-Jul-31 08:00N 28°15' W 048°27'2 0.5 -0.0
2014-Jul-31 04:31N 28°16' W 048°28'0 0.5 -0.0
2014-Jul-31 04:01N 28°17' W 048°28'0 0.5 -0.0
2014-Jul-31 03:31N 28°17' W 048°28'0 0.4 -0.0
2014-Jul-31 03:01N 28°17' W 048°28'3 0.3 -0.0
2014-Jul-30 17:31N 28°19' W 048°30'0 0.5 -0.0
2014-Jul-30 17:01N 28°19' W 048°30'2 0.1 -0.0
2014-Jul-29 18:31N 28°21' W 048°31'0 0.3 -0.0
2014-Jul-29 18:01N 28°21' W 048°30'0 0.2 -0.0
2014-Jul-29 17:31N 28°21' W 048°30'0 0.2 -0.0
2014-Jul-29 17:00N 28°21' W 048°30'0 0.3 -0.0
2014-Jul-29 15:31N 28°20' W 048°30'0 0.2 -0.0
2014-Jul-29 15:01N 28°20' W 048°30'2 0.2 -0.0
2014-Jul-29 06:31N 28°19' W 048°28'1 0.2 -0.0
2014-Jul-29 04:01N 28°20' W 048°28'0 0.2 -0.0
2014-Jul-29 03:31N 28°20' W 048°28'0 0.2 -0.0
2014-Jul-29 03:01N 28°20' W 048°28'0 0.1 -0.0
2014-Jul-29 01:01N 28°20' W 048°28'0 0.2 -0.0
2014-Jul-28 22:31N 28°20' W 048°28'0 0.3 -0.0
2014-Jul-28 22:01N 28°20' W 048°28'2 0.3 -0.0
2014-Jul-28 17:01N 28°18' W 048°27'1 0.2 -0.0
2014-Jul-28 11:01N 28°17' W 048°26'1 0.3 -0.0
2014-Jul-28 08:31N 28°16' W 048°26'0 0.3 -0.0
2014-Jul-28 08:01N 28°16' W 048°26'0 0.2 -0.0
2014-Jul-28 07:01N 28°16' W 048°26'0 0.2 -0.0
2014-Jul-28 06:01N 28°16' W 048°25'1 0.2 -0.0
2014-Jul-28 01:01N 28°16' W 048°24'0 0.1 -0.0
2014-Jul-27 21:31N 28°16' W 048°24'0 0.3 -0.0
2014-Jul-27 21:01N 28°15' W 048°24'1 0.3 -0.0
2014-Jul-27 18:01N 28°15' W 048°24'0 0.4 -0.0
2014-Jul-27 17:31N 28°14' W 048°24'0 0.4 -0.0
2014-Jul-27 17:01N 28°14' W 048°24'2 0.4 -0.0
2014-Jul-27 11:31N 28°13' W 048°23'0 0.3 -0.0
2014-Jul-27 11:01N 28°13' W 048°22'1 0.2 -0.0
2014-Jul-27 08:01N 28°12' W 048°22'0 0.1 -0.0
2014-Jul-27 07:31N 28°12' W 048°22'0 0.1 -0.0
2014-Jul-27 07:01N 28°12' W 048°22'0 0.1 -0.0
2014-Jul-27 04:31N 28°12' W 048°21'0 0.0 -0.0
2014-Jul-27 04:01N 28°12' W 048°21'0 0.2 -0.0
2014-Jul-27 03:31N 28°12' W 048°21'0 0.2 -0.0
2014-Jul-27 03:01N 28°12' W 048°21'0 0.1 -0.0
2014-Jul-27 00:01N 28°12' W 048°21'0 0.2 -0.0
2014-Jul-26 23:01N 28°12' W 048°21'0 0.1 -0.0
2014-Jul-26 22:31N 28°12' W 048°21'0 0.2 -0.0
2014-Jul-26 22:01N 28°12' W 048°21'0 0.3 -0.0
2014-Jul-26 21:31N 28°12' W 048°21'0 0.2 -0.0
2014-Jul-26 20:01N 28°11' W 048°21'0 0.1 -0.0
2014-Jul-26 18:31N 28°11' W 048°20'0 0.1 -0.0
2014-Jul-26 18:01N 28°11' W 048°20'0 0.2 -0.0
2014-Jul-26 16:01N 28°12' W 048°20'1 0.1 -0.0
2014-Jul-26 08:31N 28°11' W 048°19'0 0.3 -0.0
2014-Jul-26 08:01N 28°11' W 048°19'2 0.3 -0.0
2014-Jul-26 01:00N 28°13' W 048°18'0 0.3 -0.0
2014-Jul-26 00:30N 28°13' W 048°18'0 0.3 -0.0
2014-Jul-26 00:01N 28°13' W 048°18'2 0.3 -0.0
2014-Jul-25 18:31N 28°15' W 048°18'0 0.3 -0.0
2014-Jul-25 18:01N 28°15' W 048°18'1 0.2 -0.0
2014-Jul-25 13:00N 28°16' W 048°19'0 0.0 -0.0
2014-Jul-25 12:30N 28°16' W 048°19'0 0.1 -0.0
2014-Jul-25 11:31N 28°16' W 048°19'0 0.2 -0.0
2014-Jul-25 11:01N 28°16' W 048°19'1 0.2 -0.0
2014-Jul-25 06:31N 28°17' W 048°18'0 0.4 -0.0
2014-Jul-25 06:01N 28°17' W 048°18'1 0.3 -0.0
2014-Jul-25 01:31N 28°18' W 048°18'0 0.3 -0.0
2014-Jul-25 01:01N 28°18' W 048°18'0 0.2 -0.0
2014-Jul-24 23:01N 28°19' W 048°19'0 0.1 -0.0
2014-Jul-24 20:31N 28°19' W 048°19'0 0.2 -0.0
2014-Jul-24 20:01N 28°19' W 048°19'2 0.3 -0.0
2014-Jul-24 14:01N 28°17' W 048°20'0 0.2 -0.0
2014-Jul-24 13:31N 28°17' W 048°20'0 0.3 -0.0
2014-Jul-24 13:01N 28°17' W 048°20'0 0.3 -0.0
2014-Jul-24 12:31N 28°17' W 048°20'0 0.3 -0.0
2014-Jul-24 12:01N 28°17' W 048°20'1 0.3 -0.0
2014-Jul-24 09:31N 28°16' W 048°19'0 0.4 -0.0
2014-Jul-24 09:01N 28°16' W 048°19'0 0.2 -0.0
2014-Jul-24 07:31N 28°16' W 048°19'0 0.2 -0.0
2014-Jul-24 07:01N 28°16' W 048°19'1 0.2 -0.0
2014-Jul-24 01:01N 28°17' W 048°18'0 0.4 -0.0
2014-Jul-24 00:31N 28°17' W 048°18'0 0.4 -0.0
2014-Jul-24 00:00N 28°17' W 048°18'0 0.5 -0.0
2014-Jul-23 23:31N 28°17' W 048°19'0 0.6 -0.0
2014-Jul-23 23:01N 28°18' W 048°19'1 0.5 -0.0
2014-Jul-23 21:01N 28°18' W 048°20'6 0.3 -0.0
2014-Jul-23 04:01N 28°12' W 048°21'4 0.2 -0.0
2014-Jul-22 13:01N 28°09' W 048°24'   -0.0
Track history (hours):
 
Tides and Currents Weather Stations Pressure Air Temp Water Temp Dewpoint Dewpoint Depression Visibility Wind Speed Wind Dir Waves Ship Positions

Drifting buoy 41602

Last reported at 2014-Aug-01 12:30 UTC. Time now 2014-Aug-01 15:59 UTC.
Position N 28°12' W 048°28'.

Water temperature -0.0 ° C

Date/timePositionNaut miles runAvg speedWind from/ knotsBaromVisibWave heightAir tempDewpointWater temp
2014-Aug-01 12:30N 28°12' W 048°28'0 0.4 -0.0
2014-Aug-01 12:00N 28°12' W 048°28'0 0.4 -0.0
2014-Aug-01 11:31N 28°12' W 048°28'0 0.4 -0.0
2014-Aug-01 11:01N 28°12' W 048°28'1 0.3 -0.0
2014-Aug-01 07:01N 28°12' W 048°27'1 0.4 -0.0
2014-Aug-01 05:01N 28°12' W 048°26'0 0.4 -0.0
2014-Aug-01 04:31N 28°12' W 048°26'2 0.3 -0.0
2014-Aug-01 00:01N 28°14' W 048°26'0 0.4 -0.0
2014-Jul-31 23:31N 28°14' W 048°26'1 0.4 -0.0
2014-Jul-31 21:01N 28°14' W 048°27'0 0.3 -0.0
2014-Jul-31 20:31N 28°15' W 048°27'0 0.2 -0.0
2014-Jul-31 20:01N 28°15' W 048°27'0 0.0 -0.0
2014-Jul-31 08:00N 28°15' W 048°27'2 0.5 -0.0
2014-Jul-31 04:31N 28°16' W 048°28'0 0.5 -0.0
2014-Jul-31 04:01N 28°17' W 048°28'0 0.5 -0.0
2014-Jul-31 03:31N 28°17' W 048°28'0 0.4 -0.0
2014-Jul-31 03:01N 28°17' W 048°28'3 0.3 -0.0
2014-Jul-30 17:31N 28°19' W 048°30'0 0.5 -0.0
2014-Jul-30 17:01N 28°19' W 048°30'2 0.1 -0.0
2014-Jul-29 18:31N 28°21' W 048°31'0 0.3 -0.0
2014-Jul-29 18:01N 28°21' W 048°30'0 0.2 -0.0
2014-Jul-29 17:31N 28°21' W 048°30'0 0.2 -0.0
2014-Jul-29 17:00N 28°21' W 048°30'0 0.3 -0.0
2014-Jul-29 15:31N 28°20' W 048°30'0 0.2 -0.0
2014-Jul-29 15:01N 28°20' W 048°30'2 0.2 -0.0
2014-Jul-29 06:31N 28°19' W 048°28'1 0.2 -0.0
2014-Jul-29 04:01N 28°20' W 048°28'0 0.2 -0.0
2014-Jul-29 03:31N 28°20' W 048°28'0 0.2 -0.0
2014-Jul-29 03:01N 28°20' W 048°28'0 0.1 -0.0
2014-Jul-29 01:01N 28°20' W 048°28'0 0.2 -0.0
2014-Jul-28 22:31N 28°20' W 048°28'0 0.3 -0.0
2014-Jul-28 22:01N 28°20' W 048°28'2 0.3 -0.0
2014-Jul-28 17:01N 28°18' W 048°27'1 0.2 -0.0
2014-Jul-28 11:01N 28°17' W 048°26'1 0.3 -0.0
2014-Jul-28 08:31N 28°16' W 048°26'0 0.3 -0.0
2014-Jul-28 08:01N 28°16' W 048°26'0 0.2 -0.0
2014-Jul-28 07:01N 28°16' W 048°26'0 0.2 -0.0
2014-Jul-28 06:01N 28°16' W 048°25'1 0.2 -0.0
2014-Jul-28 01:01N 28°16' W 048°24'0 0.1 -0.0
2014-Jul-27 21:31N 28°16' W 048°24'0 0.3 -0.0
2014-Jul-27 21:01N 28°15' W 048°24'1 0.3 -0.0
2014-Jul-27 18:01N 28°15' W 048°24'0 0.4 -0.0
2014-Jul-27 17:31N 28°14' W 048°24'0 0.4 -0.0
2014-Jul-27 17:01N 28°14' W 048°24'2 0.4 -0.0
2014-Jul-27 11:31N 28°13' W 048°23'0 0.3 -0.0
2014-Jul-27 11:01N 28°13' W 048°22'1 0.2 -0.0
2014-Jul-27 08:01N 28°12' W 048°22'0 0.1 -0.0
2014-Jul-27 07:31N 28°12' W 048°22'0 0.1 -0.0
2014-Jul-27 07:01N 28°12' W 048°22'0 0.1 -0.0
2014-Jul-27 04:31N 28°12' W 048°21'0 0.0 -0.0
2014-Jul-27 04:01N 28°12' W 048°21'0 0.2 -0.0
2014-Jul-27 03:31N 28°12' W 048°21'0 0.2 -0.0
2014-Jul-27 03:01N 28°12' W 048°21'0 0.1 -0.0
2014-Jul-27 00:01N 28°12' W 048°21'0 0.2 -0.0
2014-Jul-26 23:01N 28°12' W 048°21'0 0.1 -0.0
2014-Jul-26 22:31N 28°12' W 048°21'0 0.2 -0.0
2014-Jul-26 22:01N 28°12' W 048°21'0 0.3 -0.0
2014-Jul-26 21:31N 28°12' W 048°21'0 0.2 -0.0
2014-Jul-26 20:01N 28°11' W 048°21'0 0.1 -0.0
2014-Jul-26 18:31N 28°11' W 048°20'0 0.1 -0.0
2014-Jul-26 18:01N 28°11' W 048°20'0 0.2 -0.0
2014-Jul-26 16:01N 28°12' W 048°20'1 0.1 -0.0
2014-Jul-26 08:31N 28°11' W 048°19'0 0.3 -0.0
2014-Jul-26 08:01N 28°11' W 048°19'2 0.3 -0.0
2014-Jul-26 01:00N 28°13' W 048°18'0 0.3 -0.0
2014-Jul-26 00:30N 28°13' W 048°18'0 0.3 -0.0
2014-Jul-26 00:01N 28°13' W 048°18'2 0.3 -0.0
2014-Jul-25 18:31N 28°15' W 048°18'0 0.3 -0.0
2014-Jul-25 18:01N 28°15' W 048°18'1 0.2 -0.0
2014-Jul-25 13:00N 28°16' W 048°19'0 0.0 -0.0
2014-Jul-25 12:30N 28°16' W 048°19'0 0.1 -0.0
2014-Jul-25 11:31N 28°16' W 048°19'0 0.2 -0.0
2014-Jul-25 11:01N 28°16' W 048°19'1 0.2 -0.0
2014-Jul-25 06:31N 28°17' W 048°18'0 0.4 -0.0
2014-Jul-25 06:01N 28°17' W 048°18'1 0.3 -0.0
2014-Jul-25 01:31N 28°18' W 048°18'0 0.3 -0.0
2014-Jul-25 01:01N 28°18' W 048°18'0 0.2 -0.0
2014-Jul-24 23:01N 28°19' W 048°19'0 0.1 -0.0
2014-Jul-24 20:31N 28°19' W 048°19'0 0.2 -0.0
2014-Jul-24 20:01N 28°19' W 048°19'2 0.3 -0.0
2014-Jul-24 14:01N 28°17' W 048°20'0 0.2 -0.0
2014-Jul-24 13:31N 28°17' W 048°20'0 0.3 -0.0
2014-Jul-24 13:01N 28°17' W 048°20'0 0.3 -0.0
2014-Jul-24 12:31N 28°17' W 048°20'0 0.3 -0.0
2014-Jul-24 12:01N 28°17' W 048°20'1 0.3 -0.0
2014-Jul-24 09:31N 28°16' W 048°19'0 0.4 -0.0
2014-Jul-24 09:01N 28°16' W 048°19'0 0.2 -0.0
2014-Jul-24 07:31N 28°16' W 048°19'0 0.2 -0.0
2014-Jul-24 07:01N 28°16' W 048°19'1 0.2 -0.0
2014-Jul-24 01:01N 28°17' W 048°18'0 0.4 -0.0
2014-Jul-24 00:31N 28°17' W 048°18'0 0.4 -0.0
2014-Jul-24 00:00N 28°17' W 048°18'0 0.5 -0.0
2014-Jul-23 23:31N 28°17' W 048°19'0 0.6 -0.0
2014-Jul-23 23:01N 28°18' W 048°19'1 0.5 -0.0
2014-Jul-23 21:01N 28°18' W 048°20'6 0.3 -0.0
2014-Jul-23 04:01N 28°12' W 048°21'4 0.2 -0.0
2014-Jul-22 13:01N 28°09' W 048°24'   -0.0

Dump ship's entire track history